createdAt,value
2023-05-02T00:03:16.649Z,65.29
2023-05-02T00:08:18.558Z,65.70
2023-05-02T00:13:20.597Z,65.90
2023-05-02T00:18:24.132Z,66.37
2023-05-02T00:23:25.908Z,66.40
2023-05-02T00:28:27.659Z,66.21
2023-05-02T00:33:29.449Z,66.32
2023-05-02T00:38:31.472Z,66.20
2023-05-02T00:43:33.421Z,66.13
2023-05-02T00:48:36.249Z,66.71
2023-05-02T00:53:38.045Z,66.49
2023-05-02T00:58:41.226Z,67.39
2023-05-02T01:03:45.840Z,67.33
2023-05-02T01:09:07.300Z,67.64
2023-05-02T01:14:11.691Z,67.33
2023-05-02T01:19:33.338Z,66.99
2023-05-02T01:24:43.096Z,66.45
2023-05-02T01:29:46.282Z,65.95
2023-05-02T01:34:49.940Z,65.61
2023-05-02T01:39:53.597Z,65.25
2023-05-02T01:44:56.997Z,65.02
2023-05-02T01:50:00.526Z,64.32
2023-05-02T01:55:05.131Z,63.87
2023-05-02T02:00:09.877Z,63.51
2023-05-02T02:05:16.149Z,63.11
2023-05-02T02:10:18.539Z,62.69
2023-05-02T02:15:27.457Z,62.43
2023-05-02T02:20:30.353Z,61.86
2023-05-02T02:25:33.911Z,61.65
2023-05-02T02:30:35.745Z,61.34
2023-05-02T02:35:50.556Z,61.26
2023-05-02T02:41:02.667Z,60.96
2023-05-02T02:46:32.607Z,60.79
2023-05-02T02:51:53.403Z,60.70
2023-05-02T02:57:16.658Z,60.58
2023-05-02T03:02:23.062Z,60.46
2023-05-02T03:07:28.819Z,60.16
2023-05-02T03:12:32.030Z,60.08
2023-05-02T03:17:34.025Z,59.82
2023-05-02T03:22:35.942Z,59.40
2023-05-02T03:27:37.995Z,59.27
2023-05-02T03:32:41.024Z,59.17
2023-05-02T03:37:43.436Z,58.96
2023-05-02T03:42:45.268Z,58.89
2023-05-02T03:47:54.339Z,58.67
2023-05-02T03:52:57.358Z,58.32
2023-05-02T03:58:03.609Z,58.03
2023-05-02T04:07:18.091Z,57.68
2023-05-02T04:12:21.536Z,57.47
2023-05-02T04:17:25.937Z,57.32
2023-05-02T04:22:27.982Z,57.26
2023-05-02T04:27:34.432Z,57.03
2023-05-02T04:32:37.993Z,57.00
2023-05-02T04:37:40.652Z,56.57
2023-05-02T04:42:42.908Z,56.13
2023-05-02T04:47:51.831Z,55.56
2023-05-02T04:52:54.191Z,54.85
2023-05-02T04:57:56.545Z,54.01
2023-05-02T05:03:01.572Z,53.65
2023-05-02T05:08:04.425Z,53.33
2023-05-02T05:13:09.294Z,52.44
2023-05-02T05:18:11.928Z,51.49
2023-05-02T05:23:13.895Z,51.47
2023-05-02T05:28:15.788Z,51.86
2023-05-02T05:33:18.081Z,51.55
2023-05-02T05:38:20.084Z,51.47
2023-05-02T05:43:23.414Z,50.39
2023-05-02T05:48:25.935Z,50.00
2023-05-02T05:53:27.934Z,49.14
2023-05-02T05:58:30.592Z,48.13
2023-05-02T06:03:33.220Z,47.13
2023-05-02T06:08:35.764Z,46.28
2023-05-02T06:13:39.685Z,44.83
2023-05-02T06:18:42.532Z,44.19
2023-05-02T06:23:44.400Z,43.73
2023-05-02T06:28:46.237Z,43.37
2023-05-02T06:33:47.951Z,43.11
2023-05-02T06:38:49.609Z,43.09
2023-05-02T06:43:51.903Z,42.55
2023-05-02T06:48:53.840Z,41.38
2023-05-02T06:53:55.556Z,40.87
2023-05-02T06:58:57.261Z,40.94
2023-05-02T07:03:59.060Z,40.51
2023-05-02T07:09:00.942Z,40.95
2023-05-02T07:14:02.692Z,40.91
2023-05-02T07:19:06.840Z,39.71
2023-05-02T07:24:08.620Z,38.90
2023-05-02T07:29:10.330Z,38.65
2023-05-02T07:34:12.091Z,39.13
2023-05-02T07:39:13.767Z,39.35
2023-05-02T07:44:15.494Z,38.90
2023-05-02T07:49:17.166Z,38.51
2023-05-02T07:54:20.439Z,38.50
2023-05-02T07:59:22.105Z,37.56
2023-05-02T08:04:24.012Z,37.86
2023-05-02T08:09:26.114Z,37.69
2023-05-02T08:14:27.838Z,37.81
2023-05-02T08:19:29.689Z,38.59
2023-05-02T08:24:31.425Z,37.65
2023-05-02T08:29:33.431Z,38.08
2023-05-02T08:34:35.478Z,38.12
2023-05-02T08:39:37.134Z,38.25
2023-05-02T08:44:38.996Z,37.79
2023-05-02T08:49:42.341Z,37.63
2023-05-02T08:54:45.033Z,37.65
2023-05-02T08:59:46.846Z,37.75
2023-05-02T09:04:54.830Z,39.14
2023-05-02T09:09:56.583Z,40.09
2023-05-02T09:15:16.980Z,41.10
2023-05-02T09:20:21.131Z,41.70
2023-05-02T09:25:22.885Z,41.84
2023-05-02T09:30:26.268Z,42.89
2023-05-02T09:35:28.103Z,43.71
2023-05-02T09:40:30.712Z,43.92
2023-05-02T09:45:32.655Z,43.86
2023-05-02T09:50:37.021Z,43.29
2023-05-02T09:55:40.124Z,44.05
2023-05-02T10:00:45.349Z,42.56
2023-05-02T10:05:47.412Z,41.99
2023-05-02T10:10:57.324Z,42.73
2023-05-02T10:16:10.188Z,44.13
2023-05-02T10:21:16.047Z,43.92
2023-05-02T10:26:17.798Z,43.06
2023-05-02T10:31:19.537Z,42.46
2023-05-02T10:36:22.900Z,43.10
2023-05-02T10:41:27.644Z,42.59
2023-05-02T10:46:30.295Z,42.35
2023-05-02T10:51:33.186Z,42.83
2023-05-02T10:56:35.074Z,44.45
2023-05-02T11:01:39.434Z,44.89
2023-05-02T11:06:59.451Z,44.42
2023-05-02T11:12:02.191Z,44.33
2023-05-02T11:17:06.795Z,44.11
2023-05-02T11:22:34.088Z,43.92
2023-05-02T11:27:38.584Z,44.29
2023-05-02T11:32:50.101Z,46.27
2023-05-02T11:37:56.278Z,46.86
2023-05-02T11:43:00.185Z,47.93
2023-05-02T11:48:04.684Z,48.62
2023-05-02T11:53:11.947Z,49.51
2023-05-02T11:58:18.627Z,49.28
2023-05-02T12:03:28.758Z,48.86
2023-05-02T12:08:31.369Z,48.93
2023-05-02T12:13:33.321Z,49.00
2023-05-02T12:18:36.203Z,48.97
2023-05-02T12:23:39.994Z,49.25
2023-05-02T12:28:49.675Z,50.10
2023-05-02T12:33:52.763Z,50.33
2023-05-02T12:38:59.261Z,51.67
2023-05-02T12:44:01.496Z,51.31
2023-05-02T12:49:11.893Z,50.92
2023-05-02T12:54:20.944Z,50.01
2023-05-02T12:59:30.600Z,49.05
2023-05-02T13:04:36.660Z,47.35
2023-05-02T13:09:38.840Z,47.22
2023-05-02T13:14:40.720Z,46.76
2023-05-02T13:20:01.011Z,45.03
2023-05-02T13:25:07.701Z,44.61
2023-05-02T13:30:10.318Z,45.87
2023-05-02T13:35:15.879Z,45.19
2023-05-02T13:40:17.713Z,43.78
2023-05-02T13:45:19.540Z,43.53
2023-05-02T13:50:21.415Z,43.14
2023-05-02T13:55:23.224Z,43.09
2023-05-02T14:00:25.310Z,42.83
2023-05-02T14:05:27.676Z,43.76
2023-05-02T14:10:29.355Z,42.81
2023-05-02T14:15:31.793Z,42.66
2023-05-02T14:20:33.516Z,43.02
2023-05-02T14:25:36.495Z,43.75
2023-05-02T14:30:38.230Z,44.58
2023-05-02T14:35:40.049Z,45.08
2023-05-02T14:40:41.792Z,46.37
2023-05-02T14:45:43.506Z,46.51
2023-05-02T14:50:45.376Z,47.61
2023-05-02T14:55:47.074Z,48.16
2023-05-02T15:00:48.856Z,48.38
2023-05-02T15:05:50.865Z,49.35
2023-05-02T15:10:52.671Z,50.63
2023-05-02T15:15:55.797Z,52.24
2023-05-02T15:20:57.650Z,52.34
2023-05-02T15:25:59.316Z,52.90
2023-05-02T15:31:01.007Z,53.87
2023-05-02T15:36:02.717Z,54.48
2023-05-02T15:41:04.790Z,56.02
2023-05-02T15:46:06.619Z,58.15
2023-05-02T15:51:10.790Z,59.28
2023-05-02T15:56:12.822Z,60.40
2023-05-02T16:01:14.753Z,63.26
2023-05-02T16:06:17.563Z,66.64
2023-05-02T16:11:19.301Z,67.91
2023-05-02T16:16:21.059Z,69.21
2023-05-02T16:21:22.746Z,69.77
2023-05-02T16:26:24.471Z,72.17
2023-05-02T16:31:26.460Z,71.37
2023-05-02T16:36:31.766Z,70.99
2023-05-02T16:41:35.158Z,71.47
2023-05-02T16:46:37.576Z,71.95
2023-05-02T16:51:39.482Z,72.06
2023-05-02T16:56:42.526Z,73.21
2023-05-02T17:01:44.752Z,73.32
2023-05-02T17:06:47.746Z,73.43
2023-05-02T17:11:50.294Z,74.19
2023-05-02T17:16:52.066Z,73.65
2023-05-02T17:21:54.645Z,73.50
2023-05-02T17:26:56.880Z,73.42
2023-05-02T17:32:00.724Z,73.87
2023-05-02T17:37:02.465Z,74.66
2023-05-02T17:42:04.352Z,75.06
2023-05-02T17:47:06.347Z,75.05
2023-05-02T17:52:08.044Z,75.84
2023-05-02T17:57:10.163Z,76.65
2023-05-02T18:02:12.089Z,77.33
2023-05-02T18:07:13.986Z,78.10
2023-05-02T18:12:15.749Z,78.68
2023-05-02T18:17:20.413Z,79.75
2023-05-02T18:22:22.270Z,80.83
2023-05-02T18:27:24.110Z,80.57
2023-05-02T18:32:26.209Z,80.55
2023-05-02T18:37:31.678Z,80.61
2023-05-02T18:42:33.600Z,81.16
2023-05-02T18:47:36.602Z,81.53
2023-05-02T18:52:38.578Z,81.77
2023-05-02T18:57:43.628Z,81.83
2023-05-02T19:02:45.522Z,82.50
2023-05-02T19:07:47.747Z,83.00
2023-05-02T19:12:49.547Z,83.26
2023-05-02T19:17:51.323Z,83.93
2023-05-02T19:23:02.956Z,85.86
2023-05-02T19:28:19.366Z,87.01
2023-05-02T19:33:21.112Z,86.52
2023-05-02T19:38:23.094Z,86.95
2023-05-02T19:43:26.077Z,86.80
2023-05-02T19:48:28.438Z,86.94
2023-05-02T19:53:35.286Z,87.65
2023-05-02T19:58:37.258Z,87.69
2023-05-02T20:03:39.176Z,87.38
2023-05-02T20:08:41.275Z,86.57
2023-05-02T20:13:43.139Z,87.27
2023-05-02T20:18:44.790Z,89.02
2023-05-02T20:23:46.585Z,91.48
2023-05-02T20:28:48.377Z,93.62
2023-05-02T20:33:50.585Z,95.73
2023-05-02T20:38:53.018Z,96.40
2023-05-02T20:43:55.489Z,97.18
2023-05-02T20:48:59.352Z,97.23
2023-05-02T20:54:01.383Z,97.31
2023-05-02T20:59:03.144Z,98.41
2023-05-02T21:04:05.495Z,99.01
2023-05-02T21:09:09.446Z,99.73
2023-05-02T21:14:13.251Z,99.45
2023-05-02T21:19:14.980Z,99.52
2023-05-02T21:24:16.710Z,99.19
2023-05-02T21:29:18.827Z,99.20
2023-05-02T21:34:20.745Z,99.46
2023-05-02T21:39:26.535Z,98.84
2023-05-02T21:44:28.938Z,98.30
2023-05-02T21:49:37.884Z,98.10
2023-05-02T21:54:39.868Z,96.77
2023-05-02T21:59:41.881Z,96.57
2023-05-02T22:04:47.282Z,95.65
2023-05-02T22:09:48.945Z,94.80
2023-05-02T22:14:51.114Z,94.30
2023-05-02T22:19:52.950Z,94.52
2023-05-02T22:24:54.813Z,94.46
2023-05-02T22:30:09.410Z,94.39
2023-05-02T22:35:11.222Z,93.72
2023-05-02T22:40:13.241Z,93.50
2023-05-02T22:45:14.939Z,93.74
2023-05-02T22:50:16.760Z,93.94
2023-05-02T22:55:18.563Z,93.30
2023-05-02T23:00:22.546Z,93.05
2023-05-02T23:05:24.479Z,93.20
2023-05-02T23:10:31.602Z,92.92
2023-05-02T23:15:54.477Z,92.91
2023-05-02T23:20:56.441Z,93.09
2023-05-02T23:25:58.466Z,92.93
2023-05-02T23:31:00.276Z,92.99
2023-05-02T23:36:02.505Z,92.79
2023-05-02T23:41:04.867Z,93.41
2023-05-02T23:46:09.526Z,93.70
2023-05-02T23:51:12.602Z,93.74
2023-05-02T23:56:14.372Z,94.43
